sensor_id;sensor_type;location;lat;lon;timestamp;P1;durP1;ratioP1;P2;durP2;ratioP2
7707;SDS011;3896;48.758;8.888;2024-02-14T00:01:00;5.47;;;3.07;;
7707;SDS011;3896;48.758;8.888;2024-02-14T00:03:26;3.50;;;2.93;;
7707;SDS011;3896;48.758;8.888;2024-02-14T00:05:51;4.57;;;2.73;;
7707;SDS011;3896;48.758;8.888;2024-02-14T00:08:17;6.07;;;2.87;;
7707;SDS011;3896;48.758;8.888;2024-02-14T00:10:43;4.60;;;2.70;;
7707;SDS011;3896;48.758;8.888;2024-02-14T00:13:09;4.70;;;2.90;;
7707;SDS011;3896;48.758;8.888;2024-02-14T00:15:35;6.03;;;3.03;;
7707;SDS011;3896;48.758;8.888;2024-02-14T00:18:01;5.00;;;3.23;;
7707;SDS011;3896;48.758;8.888;2024-02-14T00:20:27;4.33;;;2.97;;
7707;SDS011;3896;48.758;8.888;2024-02-14T00:22:53;4.07;;;2.73;;
7707;SDS011;3896;48.758;8.888;2024-02-14T00:25:18;3.70;;;3.37;;
7707;SDS011;3896;48.758;8.888;2024-02-14T00:27:44;4.30;;;2.80;;
7707;SDS011;3896;48.758;8.888;2024-02-14T00:30:10;2.83;;;2.63;;
7707;SDS011;3896;48.758;8.888;2024-02-14T00:32:36;6.70;;;3.17;;
7707;SDS011;3896;48.758;8.888;2024-02-14T00:35:01;6.73;;;3.37;;
7707;SDS011;3896;48.758;8.888;2024-02-14T00:37:27;4.53;;;3.50;;
7707;SDS011;3896;48.758;8.888;2024-02-14T00:39:53;4.47;;;3.33;;
7707;SDS011;3896;48.758;8.888;2024-02-14T00:42:20;5.37;;;4.03;;
7707;SDS011;3896;48.758;8.888;2024-02-14T00:44:47;7.63;;;4.23;;
7707;SDS011;3896;48.758;8.888;2024-02-14T00:47:12;4.53;;;3.60;;
7707;SDS011;3896;48.758;8.888;2024-02-14T00:49:38;4.40;;;3.40;;
7707;SDS011;3896;48.758;8.888;2024-02-14T00:52:04;5.57;;;3.67;;
7707;SDS011;3896;48.758;8.888;2024-02-14T00:54:29;6.67;;;3.57;;
7707;SDS011;3896;48.758;8.888;2024-02-14T00:56:55;4.93;;;3.57;;
7707;SDS011;3896;48.758;8.888;2024-02-14T00:59:20;5.70;;;3.97;;
7707;SDS011;3896;48.758;8.888;2024-02-14T01:01:46;5.07;;;3.73;;
7707;SDS011;3896;48.758;8.888;2024-02-14T01:04:11;5.00;;;3.67;;
7707;SDS011;3896;48.758;8.888;2024-02-14T01:06:37;3.93;;;3.30;;
7707;SDS011;3896;48.758;8.888;2024-02-14T01:09:03;6.90;;;3.13;;
7707;SDS011;3896;48.758;8.888;2024-02-14T01:11:28;7.63;;;3.97;;
7707;SDS011;3896;48.758;8.888;2024-02-14T01:13:54;4.90;;;3.17;;
7707;SDS011;3896;48.758;8.888;2024-02-14T01:16:20;5.63;;;2.83;;
7707;SDS011;3896;48.758;8.888;2024-02-14T01:18:45;5.00;;;3.07;;
7707;SDS011;3896;48.758;8.888;2024-02-14T01:21:11;3.80;;;3.40;;
7707;SDS011;3896;48.758;8.888;2024-02-14T01:23:37;4.50;;;3.33;;
7707;SDS011;3896;48.758;8.888;2024-02-14T01:26:03;4.27;;;3.13;;
7707;SDS011;3896;48.758;8.888;2024-02-14T01:28:28;9.13;;;3.00;;
7707;SDS011;3896;48.758;8.888;2024-02-14T01:30:54;4.13;;;3.40;;
7707;SDS011;3896;48.758;8.888;2024-02-14T01:33:21;4.80;;;3.30;;
7707;SDS011;3896;48.758;8.888;2024-02-14T01:35:47;3.90;;;3.27;;
7707;SDS011;3896;48.758;8.888;2024-02-14T01:38:13;6.90;;;3.70;;
7707;SDS011;3896;48.758;8.888;2024-02-14T01:40:41;6.43;;;3.47;;
7707;SDS011;3896;48.758;8.888;2024-02-14T01:43:08;5.10;;;3.13;;
7707;SDS011;3896;48.758;8.888;2024-02-14T01:45:35;4.20;;;2.97;;
7707;SDS011;3896;48.758;8.888;2024-02-14T01:48:02;4.83;;;3.13;;
7707;SDS011;3896;48.758;8.888;2024-02-14T01:50:28;4.87;;;4.50;;
7707;SDS011;3896;48.758;8.888;2024-02-14T01:52:55;3.17;;;2.77;;
7707;SDS011;3896;48.758;8.888;2024-02-14T01:55:24;6.03;;;3.33;;
7707;SDS011;3896;48.758;8.888;2024-02-14T01:57:51;5.77;;;2.80;;
7707;SDS011;3896;48.758;8.888;2024-02-14T02:00:18;3.97;;;3.33;;
7707;SDS011;3896;48.758;8.888;2024-02-14T02:02:44;5.07;;;3.57;;
7707;SDS011;3896;48.758;8.888;2024-02-14T02:05:11;5.57;;;3.20;;
7707;SDS011;3896;48.758;8.888;2024-02-14T02:07:38;6.30;;;3.50;;
7707;SDS011;3896;48.758;8.888;2024-02-14T02:10:07;5.40;;;3.27;;
7707;SDS011;3896;48.758;8.888;2024-02-14T02:12:34;5.77;;;3.33;;
7707;SDS011;3896;48.758;8.888;2024-02-14T02:15:03;5.90;;;3.57;;
7707;SDS011;3896;48.758;8.888;2024-02-14T02:17:30;7.93;;;4.07;;
7707;SDS011;3896;48.758;8.888;2024-02-14T02:19:59;9.03;;;4.27;;
7707;SDS011;3896;48.758;8.888;2024-02-14T02:22:25;6.90;;;3.57;;
7707;SDS011;3896;48.758;8.888;2024-02-14T02:24:51;6.63;;;3.30;;
7707;SDS011;3896;48.758;8.888;2024-02-14T02:27:16;5.67;;;3.20;;
7707;SDS011;3896;48.758;8.888;2024-02-14T02:29:42;7.10;;;3.70;;
7707;SDS011;3896;48.758;8.888;2024-02-14T02:32:08;4.93;;;2.93;;
7707;SDS011;3896;48.758;8.888;2024-02-14T02:34:35;4.07;;;3.03;;
7707;SDS011;3896;48.758;8.888;2024-02-14T02:37:03;4.80;;;3.27;;
7707;SDS011;3896;48.758;8.888;2024-02-14T02:39:32;6.70;;;3.23;;
7707;SDS011;3896;48.758;8.888;2024-02-14T02:41:58;4.10;;;3.03;;
7707;SDS011;3896;48.758;8.888;2024-02-14T02:57:21;4.17;;;2.53;;
7707;SDS011;3896;48.758;8.888;2024-02-14T02:59:46;2.50;;;2.07;;
7707;SDS011;3896;48.758;8.888;2024-02-14T03:02:13;5.00;;;2.97;;
7707;SDS011;3896;48.758;8.888;2024-02-14T03:04:40;5.90;;;3.57;;
7707;SDS011;3896;48.758;8.888;2024-02-14T03:07:07;4.27;;;3.13;;
7707;SDS011;3896;48.758;8.888;2024-02-14T03:09:36;4.10;;;3.07;;
7707;SDS011;3896;48.758;8.888;2024-02-14T03:12:02;5.87;;;3.00;;
7707;SDS011;3896;48.758;8.888;2024-02-14T03:14:31;7.93;;;3.53;;
7707;SDS011;3896;48.758;8.888;2024-02-14T03:17:01;5.43;;;3.30;;
7707;SDS011;3896;48.758;8.888;2024-02-14T03:19:27;5.23;;;3.67;;
7707;SDS011;3896;48.758;8.888;2024-02-14T03:21:54;4.17;;;3.10;;
7707;SDS011;3896;48.758;8.888;2024-02-14T03:24:21;5.83;;;3.23;;
7707;SDS011;3896;48.758;8.888;2024-02-14T03:26:47;4.77;;;3.20;;
7707;SDS011;3896;48.758;8.888;2024-02-14T03:29:13;4.27;;;3.17;;
7707;SDS011;3896;48.758;8.888;2024-02-14T03:31:38;5.63;;;3.03;;
7707;SDS011;3896;48.758;8.888;2024-02-14T03:34:04;4.87;;;2.50;;
7707;SDS011;3896;48.758;8.888;2024-02-14T03:36:30;2.97;;;2.27;;
7707;SDS011;3896;48.758;8.888;2024-02-14T03:38:57;5.93;;;2.43;;
7707;SDS011;3896;48.758;8.888;2024-02-14T03:41:23;3.23;;;2.40;;
7707;SDS011;3896;48.758;8.888;2024-02-14T03:43:49;3.10;;;2.33;;
7707;SDS011;3896;48.758;8.888;2024-02-14T03:46:15;4.47;;;2.30;;
7707;SDS011;3896;48.758;8.888;2024-02-14T03:48:43;3.37;;;2.30;;
7707;SDS011;3896;48.758;8.888;2024-02-14T03:51:09;3.37;;;2.40;;
7707;SDS011;3896;48.758;8.888;2024-02-14T03:53:34;3.67;;;2.17;;
7707;SDS011;3896;48.758;8.888;2024-02-14T03:56:00;3.50;;;2.90;;
7707;SDS011;3896;48.758;8.888;2024-02-14T03:58:25;5.27;;;2.37;;
7707;SDS011;3896;48.758;8.888;2024-02-14T04:00:51;3.40;;;2.20;;
7707;SDS011;3896;48.758;8.888;2024-02-14T04:03:17;3.40;;;2.20;;
7707;SDS011;3896;48.758;8.888;2024-02-14T04:05:43;3.33;;;2.50;;
7707;SDS011;3896;48.758;8.888;2024-02-14T04:08:12;2.43;;;2.20;;
7707;SDS011;3896;48.758;8.888;2024-02-14T04:10:38;3.57;;;2.23;;
7707;SDS011;3896;48.758;8.888;2024-02-14T04:13:04;3.70;;;1.80;;
7707;SDS011;3896;48.758;8.888;2024-02-14T04:15:30;9.50;;;3.03;;
7707;SDS011;3896;48.758;8.888;2024-02-14T04:17:56;8.93;;;2.53;;
7707;SDS011;3896;48.758;8.888;2024-02-14T04:20:23;3.30;;;2.53;;
7707;SDS011;3896;48.758;8.888;2024-02-14T04:22:48;5.30;;;2.63;;
7707;SDS011;3896;48.758;8.888;2024-02-14T04:25:14;3.20;;;2.33;;
7707;SDS011;3896;48.758;8.888;2024-02-14T04:27:40;4.37;;;2.63;;
7707;SDS011;3896;48.758;8.888;2024-02-14T04:30:05;2.57;;;2.20;;
7707;SDS011;3896;48.758;8.888;2024-02-14T04:32:31;7.30;;;2.63;;
7707;SDS011;3896;48.758;8.888;2024-02-14T04:34:58;4.70;;;2.20;;
7707;SDS011;3896;48.758;8.888;2024-02-14T04:37:24;2.87;;;2.37;;
7707;SDS011;3896;48.758;8.888;2024-02-14T04:39:49;2.10;;;1.90;;
7707;SDS011;3896;48.758;8.888;2024-02-14T04:42:15;4.13;;;1.67;;
7707;SDS011;3896;48.758;8.888;2024-02-14T04:44:40;4.83;;;2.30;;
7707;SDS011;3896;48.758;8.888;2024-02-14T04:47:06;2.23;;;1.77;;
7707;SDS011;3896;48.758;8.888;2024-02-14T04:49:34;4.20;;;2.07;;
7707;SDS011;3896;48.758;8.888;2024-02-14T04:52:00;3.57;;;1.90;;
7707;SDS011;3896;48.758;8.888;2024-02-14T04:54:25;4.27;;;1.90;;
7707;SDS011;3896;48.758;8.888;2024-02-14T04:56:52;4.77;;;2.23;;
7707;SDS011;3896;48.758;8.888;2024-02-14T04:59:18;2.20;;;1.90;;
7707;SDS011;3896;48.758;8.888;2024-02-14T05:01:44;2.57;;;1.80;;
7707;SDS011;3896;48.758;8.888;2024-02-14T05:04:10;5.90;;;2.43;;
7707;SDS011;3896;48.758;8.888;2024-02-14T05:06:37;2.50;;;1.83;;
7707;SDS011;3896;48.758;8.888;2024-02-14T05:09:03;2.23;;;2.03;;
7707;SDS011;3896;48.758;8.888;2024-02-14T05:11:30;5.00;;;2.40;;
7707;SDS011;3896;48.758;8.888;2024-02-14T05:13:55;3.93;;;1.70;;
7707;SDS011;3896;48.758;8.888;2024-02-14T05:16:21;1.57;;;1.40;;
7707;SDS011;3896;48.758;8.888;2024-02-14T05:18:46;5.20;;;2.23;;
7707;SDS011;3896;48.758;8.888;2024-02-14T05:21:13;1.70;;;1.53;;
7707;SDS011;3896;48.758;8.888;2024-02-14T05:23:38;1.53;;;1.40;;
7707;SDS011;3896;48.758;8.888;2024-02-14T05:26:04;4.53;;;2.00;;
7707;SDS011;3896;48.758;8.888;2024-02-14T05:28:30;5.57;;;1.90;;
7707;SDS011;3896;48.758;8.888;2024-02-14T05:30:56;2.73;;;1.93;;
7707;SDS011;3896;48.758;8.888;2024-02-14T05:33:22;1.80;;;1.27;;
7707;SDS011;3896;48.758;8.888;2024-02-14T05:35:48;1.23;;;1.07;;
7707;SDS011;3896;48.758;8.888;2024-02-14T05:38:14;2.97;;;1.40;;
7707;SDS011;3896;48.758;8.888;2024-02-14T05:40:40;1.47;;;1.37;;
7707;SDS011;3896;48.758;8.888;2024-02-14T05:43:08;2.93;;;1.70;;
7707;SDS011;3896;48.758;8.888;2024-02-14T05:45:37;3.23;;;1.77;;
7707;SDS011;3896;48.758;8.888;2024-02-14T05:48:03;3.00;;;1.10;;
7707;SDS011;3896;48.758;8.888;2024-02-14T05:50:29;4.27;;;1.80;;
7707;SDS011;3896;48.758;8.888;2024-02-14T05:52:54;3.90;;;2.07;;
7707;SDS011;3896;48.758;8.888;2024-02-14T05:55:22;1.80;;;1.43;;
7707;SDS011;3896;48.758;8.888;2024-02-14T05:57:47;1.33;;;1.07;;
7707;SDS011;3896;48.758;8.888;2024-02-14T06:00:13;1.40;;;1.13;;
7707;SDS011;3896;48.758;8.888;2024-02-14T06:02:39;3.50;;;1.73;;
7707;SDS011;3896;48.758;8.888;2024-02-14T06:05:05;2.13;;;1.50;;
7707;SDS011;3896;48.758;8.888;2024-02-14T06:07:36;3.27;;;1.70;;
7707;SDS011;3896;48.758;8.888;2024-02-14T06:10:02;3.43;;;1.13;;
7707;SDS011;3896;48.758;8.888;2024-02-14T06:12:27;1.67;;;1.57;;
7707;SDS011;3896;48.758;8.888;2024-02-14T06:14:54;2.60;;;1.37;;
7707;SDS011;3896;48.758;8.888;2024-02-14T06:17:20;3.53;;;1.27;;
7707;SDS011;3896;48.758;8.888;2024-02-14T06:19:46;3.17;;;1.37;;
7707;SDS011;3896;48.758;8.888;2024-02-14T06:22:11;3.63;;;1.50;;
7707;SDS011;3896;48.758;8.888;2024-02-14T06:24:37;2.60;;;1.37;;
7707;SDS011;3896;48.758;8.888;2024-02-14T06:27:02;1.20;;;1.10;;
7707;SDS011;3896;48.758;8.888;2024-02-14T06:29:28;3.23;;;1.23;;
7707;SDS011;3896;48.758;8.888;2024-02-14T06:31:53;2.40;;;1.50;;
7707;SDS011;3896;48.758;8.888;2024-02-14T06:34:19;2.93;;;1.30;;
7707;SDS011;3896;48.758;8.888;2024-02-14T06:36:46;2.20;;;1.40;;
7707;SDS011;3896;48.758;8.888;2024-02-14T06:39:12;1.40;;;1.30;;
7707;SDS011;3896;48.758;8.888;2024-02-14T06:41:37;2.73;;;1.70;;
7707;SDS011;3896;48.758;8.888;2024-02-14T06:44:04;2.17;;;1.60;;
7707;SDS011;3896;48.758;8.888;2024-02-14T06:46:30;4.43;;;1.83;;
7707;SDS011;3896;48.758;8.888;2024-02-14T06:48:55;3.03;;;1.57;;
7707;SDS011;3896;48.758;8.888;2024-02-14T06:51:21;1.17;;;1.07;;
7707;SDS011;3896;48.758;8.888;2024-02-14T06:53:48;2.50;;;1.33;;
7707;SDS011;3896;48.758;8.888;2024-02-14T06:56:14;2.87;;;1.63;;
7707;SDS011;3896;48.758;8.888;2024-02-14T06:58:40;1.27;;;1.13;;
7707;SDS011;3896;48.758;8.888;2024-02-14T07:01:05;2.83;;;2.23;;
7707;SDS011;3896;48.758;8.888;2024-02-14T07:03:31;1.80;;;1.53;;
7707;SDS011;3896;48.758;8.888;2024-02-14T07:05:57;2.20;;;1.53;;
7707;SDS011;3896;48.758;8.888;2024-02-14T07:08:22;3.03;;;1.37;;
7707;SDS011;3896;48.758;8.888;2024-02-14T07:10:50;2.87;;;1.57;;
7707;SDS011;3896;48.758;8.888;2024-02-14T07:13:16;2.30;;;1.47;;
7707;SDS011;3896;48.758;8.888;2024-02-14T07:15:41;3.07;;;1.53;;
7707;SDS011;3896;48.758;8.888;2024-02-14T07:18:07;1.57;;;1.47;;
7707;SDS011;3896;48.758;8.888;2024-02-14T07:20:34;2.93;;;1.43;;
7707;SDS011;3896;48.758;8.888;2024-02-14T07:23:00;2.93;;;1.20;;
7707;SDS011;3896;48.758;8.888;2024-02-14T07:25:26;2.63;;;1.53;;
7707;SDS011;3896;48.758;8.888;2024-02-14T07:27:51;3.40;;;1.43;;
7707;SDS011;3896;48.758;8.888;2024-02-14T07:30:17;1.23;;;1.20;;
7707;SDS011;3896;48.758;8.888;2024-02-14T07:32:43;4.40;;;1.43;;
7707;SDS011;3896;48.758;8.888;2024-02-14T07:35:09;2.10;;;1.50;;
7707;SDS011;3896;48.758;8.888;2024-02-14T07:37:35;1.90;;;1.50;;
7707;SDS011;3896;48.758;8.888;2024-02-14T07:40:01;2.63;;;1.47;;
7707;SDS011;3896;48.758;8.888;2024-02-14T07:42:27;2.30;;;1.20;;
7707;SDS011;3896;48.758;8.888;2024-02-14T07:44:53;1.33;;;1.23;;
7707;SDS011;3896;48.758;8.888;2024-02-14T07:47:21;2.47;;;1.43;;
7707;SDS011;3896;48.758;8.888;2024-02-14T07:49:46;6.77;;;2.00;;
7707;SDS011;3896;48.758;8.888;2024-02-14T07:52:12;1.67;;;1.50;;
7707;SDS011;3896;48.758;8.888;2024-02-14T07:54:37;4.73;;;1.67;;
7707;SDS011;3896;48.758;8.888;2024-02-14T07:57:03;1.60;;;1.50;;
7707;SDS011;3896;48.758;8.888;2024-02-14T07:59:29;1.47;;;1.30;;
7707;SDS011;3896;48.758;8.888;2024-02-14T08:01:54;1.57;;;1.30;;
7707;SDS011;3896;48.758;8.888;2024-02-14T08:04:21;2.43;;;1.40;;
7707;SDS011;3896;48.758;8.888;2024-02-14T08:06:46;1.90;;;1.30;;
7707;SDS011;3896;48.758;8.888;2024-02-14T08:09:14;2.60;;;1.30;;
7707;SDS011;3896;48.758;8.888;2024-02-14T08:11:40;2.00;;;1.20;;
7707;SDS011;3896;48.758;8.888;2024-02-14T08:14:06;1.23;;;1.20;;
7707;SDS011;3896;48.758;8.888;2024-02-14T08:16:31;2.83;;;1.47;;
7707;SDS011;3896;48.758;8.888;2024-02-14T08:18:57;2.77;;;1.10;;
7707;SDS011;3896;48.758;8.888;2024-02-14T08:21:26;1.40;;;1.30;;
7707;SDS011;3896;48.758;8.888;2024-02-14T08:23:52;3.23;;;1.23;;
7707;SDS011;3896;48.758;8.888;2024-02-14T08:26:19;2.53;;;1.53;;
7707;SDS011;3896;48.758;8.888;2024-02-14T08:28:46;1.27;;;1.20;;
7707;SDS011;3896;48.758;8.888;2024-02-14T08:31:12;2.53;;;1.57;;
7707;SDS011;3896;48.758;8.888;2024-02-14T08:33:38;2.30;;;1.30;;
7707;SDS011;3896;48.758;8.888;2024-02-14T08:36:04;2.27;;;1.30;;
7707;SDS011;3896;48.758;8.888;2024-02-14T08:38:30;1.70;;;1.57;;
7707;SDS011;3896;48.758;8.888;2024-02-14T08:40:57;2.13;;;1.50;;
7707;SDS011;3896;48.758;8.888;2024-02-14T08:43:22;2.23;;;1.53;;
7707;SDS011;3896;48.758;8.888;2024-02-14T08:45:51;1.40;;;1.30;;
7707;SDS011;3896;48.758;8.888;2024-02-14T08:48:17;2.07;;;1.87;;
7707;SDS011;3896;48.758;8.888;2024-02-14T08:50:42;2.17;;;1.40;;
7707;SDS011;3896;48.758;8.888;2024-02-14T08:53:08;2.67;;;1.60;;
7707;SDS011;3896;48.758;8.888;2024-02-14T08:55:34;3.67;;;1.50;;
7707;SDS011;3896;48.758;8.888;2024-02-14T08:58:01;4.03;;;1.90;;
7707;SDS011;3896;48.758;8.888;2024-02-14T09:00:28;2.17;;;1.60;;
7707;SDS011;3896;48.758;8.888;2024-02-14T09:02:55;1.30;;;1.20;;
7707;SDS011;3896;48.758;8.888;2024-02-14T09:05:21;3.77;;;1.90;;
7707;SDS011;3896;48.758;8.888;2024-02-14T09:07:47;2.70;;;1.57;;
7707;SDS011;3896;48.758;8.888;2024-02-14T09:10:13;2.40;;;1.70;;
7707;SDS011;3896;48.758;8.888;2024-02-14T09:12:39;1.27;;;1.17;;
7707;SDS011;3896;48.758;8.888;2024-02-14T09:15:06;3.57;;;1.70;;
7707;SDS011;3896;48.758;8.888;2024-02-14T09:17:32;3.63;;;2.00;;
7707;SDS011;3896;48.758;8.888;2024-02-14T09:19:58;3.17;;;2.00;;
7707;SDS011;3896;48.758;8.888;2024-02-14T09:22:24;3.70;;;1.60;;
7707;SDS011;3896;48.758;8.888;2024-02-14T09:24:49;2.23;;;1.80;;
7707;SDS011;3896;48.758;8.888;2024-02-14T09:27:15;1.97;;;1.80;;
7707;SDS011;3896;48.758;8.888;2024-02-14T09:29:41;2.80;;;1.80;;
7707;SDS011;3896;48.758;8.888;2024-02-14T09:32:07;2.63;;;1.40;;
7707;SDS011;3896;48.758;8.888;2024-02-14T09:34:33;3.00;;;1.77;;
7707;SDS011;3896;48.758;8.888;2024-02-14T09:36:59;2.60;;;2.17;;
7707;SDS011;3896;48.758;8.888;2024-02-14T09:39:25;2.53;;;1.93;;
7707;SDS011;3896;48.758;8.888;2024-02-14T09:41:51;2.07;;;1.63;;
7707;SDS011;3896;48.758;8.888;2024-02-14T09:44:19;2.90;;;1.70;;
7707;SDS011;3896;48.758;8.888;2024-02-14T09:46:46;2.97;;;1.40;;
7707;SDS011;3896;48.758;8.888;2024-02-14T09:49:13;2.00;;;1.80;;
7707;SDS011;3896;48.758;8.888;2024-02-14T09:51:41;3.20;;;1.40;;
7707;SDS011;3896;48.758;8.888;2024-02-14T09:54:09;3.03;;;2.10;;
7707;SDS011;3896;48.758;8.888;2024-02-14T09:56:36;2.83;;;1.83;;
7707;SDS011;3896;48.758;8.888;2024-02-14T09:59:02;1.73;;;1.63;;
7707;SDS011;3896;48.758;8.888;2024-02-14T10:01:27;1.97;;;1.67;;
7707;SDS011;3896;48.758;8.888;2024-02-14T10:03:53;2.10;;;1.67;;
7707;SDS011;3896;48.758;8.888;2024-02-14T10:06:20;1.73;;;1.50;;
7707;SDS011;3896;48.758;8.888;2024-02-14T10:08:46;2.57;;;1.90;;
7707;SDS011;3896;48.758;8.888;2024-02-14T10:11:14;1.77;;;1.40;;
7707;SDS011;3896;48.758;8.888;2024-02-14T10:13:40;1.90;;;1.27;;
7707;SDS011;3896;48.758;8.888;2024-02-14T10:16:06;1.20;;;1.10;;
7707;SDS011;3896;48.758;8.888;2024-02-14T10:18:36;2.50;;;1.47;;
7707;SDS011;3896;48.758;8.888;2024-02-14T10:21:02;1.57;;;0.80;;
7707;SDS011;3896;48.758;8.888;2024-02-14T10:23:29;1.77;;;1.50;;
7707;SDS011;3896;48.758;8.888;2024-02-14T10:25:55;3.07;;;1.20;;
7707;SDS011;3896;48.758;8.888;2024-02-14T10:28:21;1.20;;;1.10;;
7707;SDS011;3896;48.758;8.888;2024-02-14T10:30:48;1.43;;;1.00;;
7707;SDS011;3896;48.758;8.888;2024-02-14T10:33:17;0.97;;;0.83;;
7707;SDS011;3896;48.758;8.888;2024-02-14T10:35:44;0.97;;;0.73;;
7707;SDS011;3896;48.758;8.888;2024-02-14T10:38:11;5.37;;;0.90;;
7707;SDS011;3896;48.758;8.888;2024-02-14T10:40:37;2.47;;;0.90;;
7707;SDS011;3896;48.758;8.888;2024-02-14T10:43:07;0.87;;;0.60;;
7707;SDS011;3896;48.758;8.888;2024-02-14T10:45:34;3.37;;;0.73;;
7707;SDS011;3896;48.758;8.888;2024-02-14T10:48:00;0.90;;;0.90;;
7707;SDS011;3896;48.758;8.888;2024-02-14T10:50:28;1.77;;;0.80;;
7707;SDS011;3896;48.758;8.888;2024-02-14T10:53:03;0.93;;;0.70;;
7707;SDS011;3896;48.758;8.888;2024-02-14T10:55:31;0.60;;;0.60;;
7707;SDS011;3896;48.758;8.888;2024-02-14T10:57:58;3.20;;;1.07;;
7707;SDS011;3896;48.758;8.888;2024-02-14T11:00:25;0.63;;;0.63;;
7707;SDS011;3896;48.758;8.888;2024-02-14T11:02:51;3.00;;;0.90;;
7707;SDS011;3896;48.758;8.888;2024-02-14T11:05:18;0.93;;;0.77;;
7707;SDS011;3896;48.758;8.888;2024-02-14T11:07:48;1.03;;;0.80;;
7707;SDS011;3896;48.758;8.888;2024-02-14T11:10:18;2.27;;;0.80;;
7707;SDS011;3896;48.758;8.888;2024-02-14T11:12:46;0.80;;;0.80;;
7707;SDS011;3896;48.758;8.888;2024-02-14T11:15:23;0.50;;;0.50;;
7707;SDS011;3896;48.758;8.888;2024-02-14T11:17:50;1.90;;;1.13;;
7707;SDS011;3896;48.758;8.888;2024-02-14T11:22:50;0.70;;;0.70;;
7707;SDS011;3896;48.758;8.888;2024-02-14T11:25:23;1.00;;;0.83;;
7707;SDS011;3896;48.758;8.888;2024-02-14T11:27:57;1.20;;;0.70;;
7707;SDS011;3896;48.758;8.888;2024-02-14T11:30:29;1.07;;;0.80;;
7707;SDS011;3896;48.758;8.888;2024-02-14T11:33:08;2.43;;;0.87;;
7707;SDS011;3896;48.758;8.888;2024-02-14T11:35:41;0.60;;;0.60;;
7707;SDS011;3896;48.758;8.888;2024-02-14T11:38:08;1.00;;;0.73;;
7707;SDS011;3896;48.758;8.888;2024-02-14T11:40:34;0.80;;;0.80;;
7707;SDS011;3896;48.758;8.888;2024-02-14T11:43:00;0.90;;;0.87;;
7707;SDS011;3896;48.758;8.888;2024-02-14T11:45:27;2.27;;;0.70;;
7707;SDS011;3896;48.758;8.888;2024-02-14T11:47:52;0.90;;;0.80;;
7707;SDS011;3896;48.758;8.888;2024-02-14T11:50:18;1.43;;;0.80;;
7707;SDS011;3896;48.758;8.888;2024-02-14T11:52:44;1.57;;;0.80;;
7707;SDS011;3896;48.758;8.888;2024-02-14T11:55:10;1.40;;;0.93;;
7707;SDS011;3896;48.758;8.888;2024-02-14T11:57:38;0.70;;;0.50;;
7707;SDS011;3896;48.758;8.888;2024-02-14T12:00:04;1.83;;;0.63;;
7707;SDS011;3896;48.758;8.888;2024-02-14T12:02:29;1.20;;;0.90;;
7707;SDS011;3896;48.758;8.888;2024-02-14T12:04:55;0.87;;;0.77;;
7707;SDS011;3896;48.758;8.888;2024-02-14T12:07:22;0.80;;;0.80;;
7707;SDS011;3896;48.758;8.888;2024-02-14T12:09:48;0.73;;;0.73;;
7707;SDS011;3896;48.758;8.888;2024-02-14T12:12:14;1.20;;;0.70;;
7707;SDS011;3896;48.758;8.888;2024-02-14T12:14:40;0.70;;;0.70;;
7707;SDS011;3896;48.758;8.888;2024-02-14T12:17:09;0.67;;;0.67;;
7707;SDS011;3896;48.758;8.888;2024-02-14T12:19:35;0.77;;;0.60;;
7707;SDS011;3896;48.758;8.888;2024-02-14T12:22:08;0.70;;;0.70;;
7707;SDS011;3896;48.758;8.888;2024-02-14T12:24:42;0.50;;;0.50;;
7707;SDS011;3896;48.758;8.888;2024-02-14T12:27:09;1.80;;;0.70;;
7707;SDS011;3896;48.758;8.888;2024-02-14T12:29:34;0.63;;;0.63;;
7707;SDS011;3896;48.758;8.888;2024-02-14T12:32:06;1.60;;;0.77;;
7707;SDS011;3896;48.758;8.888;2024-02-14T12:34:32;0.70;;;0.60;;
7707;SDS011;3896;48.758;8.888;2024-02-14T12:36:58;0.80;;;0.60;;
7707;SDS011;3896;48.758;8.888;2024-02-14T12:39:28;0.80;;;0.80;;
7707;SDS011;3896;48.758;8.888;2024-02-14T12:41:54;0.97;;;0.70;;
7707;SDS011;3896;48.758;8.888;2024-02-14T12:44:20;0.70;;;0.70;;
7707;SDS011;3896;48.758;8.888;2024-02-14T12:46:46;0.57;;;0.57;;
7707;SDS011;3896;48.758;8.888;2024-02-14T12:49:11;1.00;;;1.00;;
7707;SDS011;3896;48.758;8.888;2024-02-14T12:51:37;0.77;;;0.67;;
7707;SDS011;3896;48.758;8.888;2024-02-14T12:54:03;0.80;;;0.80;;
7707;SDS011;3896;48.758;8.888;2024-02-14T12:56:30;0.83;;;0.57;;
7707;SDS011;3896;48.758;8.888;2024-02-14T12:58:56;0.63;;;0.63;;
7707;SDS011;3896;48.758;8.888;2024-02-14T13:01:24;1.33;;;0.80;;
7707;SDS011;3896;48.758;8.888;2024-02-14T13:03:50;0.60;;;0.60;;
7707;SDS011;3896;48.758;8.888;2024-02-14T13:06:15;1.80;;;0.60;;
7707;SDS011;3896;48.758;8.888;2024-02-14T13:08:41;0.73;;;0.73;;
7707;SDS011;3896;48.758;8.888;2024-02-14T13:11:06;0.27;;;0.27;;
7707;SDS011;3896;48.758;8.888;2024-02-14T13:13:35;1.50;;;0.60;;
7707;SDS011;3896;48.758;8.888;2024-02-14T13:16:01;0.60;;;0.60;;
7707;SDS011;3896;48.758;8.888;2024-02-14T13:18:26;1.60;;;0.67;;
7707;SDS011;3896;48.758;8.888;2024-02-14T13:20:52;2.83;;;2.43;;
7707;SDS011;3896;48.758;8.888;2024-02-14T13:23:24;3.10;;;1.90;;
7707;SDS011;3896;48.758;8.888;2024-02-14T13:25:50;1.33;;;1.20;;
7707;SDS011;3896;48.758;8.888;2024-02-14T13:28:16;0.70;;;0.70;;
7707;SDS011;3896;48.758;8.888;2024-02-14T13:30:41;0.57;;;0.57;;
7707;SDS011;3896;48.758;8.888;2024-02-14T13:33:07;0.30;;;0.30;;
7707;SDS011;3896;48.758;8.888;2024-02-14T13:35:34;0.30;;;0.20;;
7707;SDS011;3896;48.758;8.888;2024-02-14T13:38:03;0.40;;;0.40;;
7707;SDS011;3896;48.758;8.888;2024-02-14T13:40:30;0.50;;;0.50;;
7707;SDS011;3896;48.758;8.888;2024-02-14T13:42:56;1.23;;;0.80;;
7707;SDS011;3896;48.758;8.888;2024-02-14T13:45:23;0.57;;;0.57;;
7707;SDS011;3896;48.758;8.888;2024-02-14T13:47:50;1.53;;;1.00;;
7707;SDS011;3896;48.758;8.888;2024-02-14T13:50:18;0.50;;;0.50;;
7707;SDS011;3896;48.758;8.888;2024-02-14T13:52:43;0.30;;;0.30;;
7707;SDS011;3896;48.758;8.888;2024-02-14T13:55:09;0.70;;;0.70;;
7707;SDS011;3896;48.758;8.888;2024-02-14T13:57:36;1.10;;;1.00;;
7707;SDS011;3896;48.758;8.888;2024-02-14T14:00:06;1.10;;;1.00;;
7707;SDS011;3896;48.758;8.888;2024-02-14T14:02:36;4.90;;;3.00;;
7707;SDS011;3896;48.758;8.888;2024-02-14T14:05:06;1.17;;;1.07;;
7707;SDS011;3896;48.758;8.888;2024-02-14T14:07:38;1.60;;;1.50;;
7707;SDS011;3896;48.758;8.888;2024-02-14T14:10:05;0.93;;;0.60;;
7707;SDS011;3896;48.758;8.888;2024-02-14T14:12:31;0.73;;;0.70;;
7707;SDS011;3896;48.758;8.888;2024-02-14T14:14:57;0.90;;;0.60;;
7707;SDS011;3896;48.758;8.888;2024-02-14T14:17:23;0.40;;;0.40;;
7707;SDS011;3896;48.758;8.888;2024-02-14T14:19:49;0.67;;;0.67;;
7707;SDS011;3896;48.758;8.888;2024-02-14T14:22:15;0.50;;;0.50;;
7707;SDS011;3896;48.758;8.888;2024-02-14T14:24:41;0.30;;;0.30;;
7707;SDS011;3896;48.758;8.888;2024-02-14T14:27:07;0.47;;;0.43;;
7707;SDS011;3896;48.758;8.888;2024-02-14T14:29:40;3.10;;;0.70;;
7707;SDS011;3896;48.758;8.888;2024-02-14T14:32:09;0.83;;;0.50;;
7707;SDS011;3896;48.758;8.888;2024-02-14T14:34:35;1.17;;;0.30;;
7707;SDS011;3896;48.758;8.888;2024-02-14T14:37:02;1.10;;;1.00;;
7707;SDS011;3896;48.758;8.888;2024-02-14T14:39:28;0.87;;;0.67;;
7707;SDS011;3896;48.758;8.888;2024-02-14T14:41:54;0.47;;;0.47;;
7707;SDS011;3896;48.758;8.888;2024-02-14T14:44:23;1.60;;;0.67;;
7707;SDS011;3896;48.758;8.888;2024-02-14T14:46:52;1.03;;;0.60;;
7707;SDS011;3896;48.758;8.888;2024-02-14T14:49:18;0.80;;;0.80;;
7707;SDS011;3896;48.758;8.888;2024-02-14T14:51:43;0.97;;;0.73;;
7707;SDS011;3896;48.758;8.888;2024-02-14T14:54:09;1.17;;;1.13;;
7707;SDS011;3896;48.758;8.888;2024-02-14T14:56:35;0.97;;;0.50;;
7707;SDS011;3896;48.758;8.888;2024-02-14T14:59:00;0.53;;;0.53;;
7707;SDS011;3896;48.758;8.888;2024-02-14T15:01:28;0.70;;;0.70;;
7707;SDS011;3896;48.758;8.888;2024-02-14T15:03:54;1.83;;;0.60;;
7707;SDS011;3896;48.758;8.888;2024-02-14T15:06:20;0.50;;;0.50;;
7707;SDS011;3896;48.758;8.888;2024-02-14T15:08:46;0.67;;;0.67;;
7707;SDS011;3896;48.758;8.888;2024-02-14T15:11:13;0.60;;;0.53;;
7707;SDS011;3896;48.758;8.888;2024-02-14T15:13:41;0.50;;;0.50;;
7707;SDS011;3896;48.758;8.888;2024-02-14T15:16:07;2.20;;;0.97;;
7707;SDS011;3896;48.758;8.888;2024-02-14T15:18:33;0.50;;;0.50;;
7707;SDS011;3896;48.758;8.888;2024-02-14T15:21:00;0.50;;;0.50;;
7707;SDS011;3896;48.758;8.888;2024-02-14T15:23:26;2.53;;;2.13;;
7707;SDS011;3896;48.758;8.888;2024-02-14T15:25:53;1.00;;;1.00;;